Time;durP1;ratioP1;P1;durP2;ratioP2;P2;SDS_P1;SDS_P2;PMS_P1;PMS_P2;Temp;Humidity;BMP_temperature;BMP_pressure;BME280_temperature;BME280_humidity;BME280_pressure;Samples;Min_cycle;Max_cycle;Signal;HPM_P1;HPM_P2
2021/03/03 00:00:35;;;;;;;13.52;8.15;;;9.00;71.10;;;;;;2066274;28;20026;-84
2021/03/03 00:01:36;;;;;;;15.18;8.13;;;9.00;71.10;;;;;;2078278;28;20411;-83
2021/03/03 00:02:37;;;;;;;13.32;8.20;;;9.00;71.10;;;;;;2069046;28;20041;-83
2021/03/03 00:03:39;;;;;;;12.93;7.70;;;9.00;71.20;;;;;;2058266;28;20042;-84
2021/03/03 00:04:40;;;;;;;13.38;8.32;;;9.00;71.20;;;;;;2068027;28;20030;-83
2021/03/03 00:05:41;;;;;;;13.35;8.25;;;9.00;71.20;;;;;;2066571;28;20053;-84
2021/03/03 00:06:44;;;;;;;13.27;7.97;;;9.00;71.30;;;;;;2059785;28;20015;-84
2021/03/03 00:07:46;;;;;;;15.27;8.68;;;9.00;71.40;;;;;;2056552;28;20062;-83
2021/03/03 00:08:47;;;;;;;13.82;8.05;;;8.90;71.30;;;;;;2064449;28;20031;-83
2021/03/03 00:09:49;;;;;;;13.30;8.55;;;8.90;71.30;;;;;;2073716;28;20475;-83
2021/03/03 00:10:50;;;;;;;13.70;8.60;;;8.90;71.40;;;;;;2066638;28;20117;-82
2021/03/03 00:11:52;;;;;;;14.60;8.73;;;8.90;71.40;;;;;;2064339;28;20811;-83
2021/03/03 00:12:53;;;;;;;14.48;8.80;;;8.90;71.50;;;;;;2078381;28;20025;-83
2021/03/03 00:13:55;;;;;;;13.20;8.38;;;8.80;71.50;;;;;;2064335;28;20559;-83
2021/03/03 00:14:57;;;;;;;13.35;8.60;;;8.90;71.60;;;;;;2069235;28;20582;-83
2021/03/03 00:15:59;;;;;;;13.57;8.05;;;8.80;71.50;;;;;;2079870;28;20045;-83
2021/03/03 00:17:01;;;;;;;14.73;8.75;;;8.90;71.50;;;;;;2073058;28;20033;-83
2021/03/03 00:18:02;;;;;;;15.60;8.40;;;8.90;71.50;;;;;;2066012;28;20042;-83
2021/03/03 00:19:07;;;;;;;13.30;7.70;;;8.90;71.50;;;;;;2058415;28;20036;-83
2021/03/03 00:20:12;;;;;;;14.43;8.00;;;8.90;71.40;;;;;;2065073;28;20102;-82
2021/03/03 00:21:14;;;;;;;13.85;8.60;;;8.90;71.40;;;;;;2068920;28;20033;-82
2021/03/03 00:22:19;;;;;;;14.40;8.65;;;8.90;71.40;;;;;;2073019;28;20026;-82
2021/03/03 00:23:21;;;;;;;14.40;8.63;;;8.90;71.30;;;;;;2080800;28;20080;-82
2021/03/03 00:24:25;;;;;;;14.57;8.70;;;8.90;71.30;;;;;;2073092;28;20506;-83
2021/03/03 00:25:33;;;;;;;15.00;8.40;;;8.90;71.30;;;;;;2065575;28;20483;-81
2021/03/03 00:26:37;;;;;;;14.32;8.60;;;8.90;71.30;;;;;;2070406;28;20032;-82
2021/03/03 00:27:39;;;;;;;13.85;8.30;;;8.90;71.40;;;;;;2064638;28;20073;-82
2021/03/03 00:28:40;;;;;;;15.77;8.55;;;8.80;71.40;;;;;;2067838;28;20049;-82
2021/03/03 00:29:42;;;;;;;14.30;8.35;;;8.80;71.40;;;;;;2062815;28;20073;-83
2021/03/03 00:30:43;;;;;;;14.57;8.68;;;8.80;71.40;;;;;;2067607;28;20037;-82
2021/03/03 00:31:45;;;;;;;14.20;8.40;;;8.80;71.60;;;;;;2064156;28;20026;-83
2021/03/03 00:32:52;;;;;;;12.95;8.07;;;8.70;71.60;;;;;;2054070;28;20039;-82
2021/03/03 00:34:05;;;;;;;13.98;8.32;;;8.70;71.70;;;;;;2061436;28;20420;-82
2021/03/03 00:35:08;;;;;;;14.02;8.70;;;8.70;71.80;;;;;;2061309;28;20547;-82
2021/03/03 00:36:10;;;;;;;13.88;7.72;;;8.70;71.90;;;;;;2074012;28;20100;-82
2021/03/03 00:37:11;;;;;;;15.95;8.85;;;8.70;71.90;;;;;;2076250;28;20113;-82
2021/03/03 00:38:13;;;;;;;14.60;8.60;;;8.60;71.90;;;;;;2072152;28;20022;-82
2021/03/03 00:39:15;;;;;;;14.02;8.40;;;8.60;71.90;;;;;;2066505;28;20035;-82
2021/03/03 00:40:16;;;;;;;13.52;8.63;;;8.60;71.90;;;;;;2057738;28;20456;-82
2021/03/03 00:41:17;;;;;;;12.75;7.75;;;8.60;72.00;;;;;;2057812;28;20068;-83
2021/03/03 00:42:18;;;;;;;15.05;8.35;;;8.60;72.00;;;;;;2051318;28;20028;-82
2021/03/03 00:43:20;;;;;;;13.43;8.05;;;8.60;72.10;;;;;;2066390;28;20528;-83
2021/03/03 00:44:21;;;;;;;12.93;8.10;;;8.60;72.10;;;;;;2071198;28;20109;-82
2021/03/03 00:45:26;;;;;;;15.43;8.45;;;8.60;72.20;;;;;;2074569;28;20191;-82
2021/03/03 00:46:30;;;;;;;14.50;8.40;;;8.60;72.20;;;;;;2069013;28;20060;-83
2021/03/03 00:47:35;;;;;;;15.35;8.57;;;8.60;72.20;;;;;;2065166;28;20484;-83
2021/03/03 00:48:36;;;;;;;14.00;8.52;;;8.60;72.20;;;;;;2058472;28;20030;-82
2021/03/03 00:49:37;;;;;;;14.63;8.43;;;8.50;72.20;;;;;;2069206;28;20054;-82
2021/03/03 00:50:38;;;;;;;14.65;8.63;;;8.60;72.30;;;;;;2061744;28;20406;-82
2021/03/03 00:51:40;;;;;;;13.68;8.60;;;8.50;72.30;;;;;;2066610;28;20042;-82
2021/03/03 00:52:41;;;;;;;14.18;8.60;;;8.50;72.30;;;;;;2074437;28;20484;-82
2021/03/03 00:53:45;;;;;;;13.23;8.52;;;8.50;72.40;;;;;;2082615;28;20431;-82
2021/03/03 00:54:49;;;;;;;13.32;7.85;;;8.50;72.40;;;;;;2074738;28;20034;-81
2021/03/03 00:55:59;;;;;;;14.73;8.85;;;8.50;72.40;;;;;;2074664;28;20053;-82
2021/03/03 00:57:00;;;;;;;13.70;8.43;;;8.50;72.50;;;;;;2063029;28;20077;-82
2021/03/03 00:58:04;;;;;;;14.15;8.70;;;8.40;72.50;;;;;;2065398;28;20480;-82
2021/03/03 00:59:08;;;;;;;15.32;8.90;;;8.40;72.50;;;;;;2082688;28;20025;-82
2021/03/03 01:00:20;;;;;;;16.20;8.48;;;8.40;72.60;;;;;;2066248;28;20409;-82
2021/03/03 01:01:24;;;;;;;14.13;8.63;;;8.40;72.50;;;;;;2065853;28;20453;-82
2021/03/03 01:02:26;;;;;;;16.23;8.75;;;8.40;72.50;;;;;;2058792;28;20049;-82
2021/03/03 01:03:27;;;;;;;14.20;8.50;;;8.40;72.60;;;;;;2062967;28;20161;-83
2021/03/03 01:04:28;;;;;;;15.20;8.80;;;8.40;72.60;;;;;;2062076;28;20413;-82
2021/03/03 01:05:29;;;;;;;14.85;8.35;;;8.40;72.60;;;;;;2058581;28;20042;-82
2021/03/03 01:06:31;;;;;;;13.82;8.95;;;8.40;72.70;;;;;;2075274;28;20022;-82
2021/03/03 01:07:33;;;;;;;14.05;8.70;;;8.40;72.70;;;;;;2067807;28;20034;-82
2021/03/03 01:08:34;;;;;;;15.25;9.05;;;8.40;72.70;;;;;;2056049;28;20347;-82
2021/03/03 01:09:35;;;;;;;14.57;8.60;;;8.40;72.80;;;;;;2059989;28;20032;-82
2021/03/03 01:10:40;;;;;;;14.82;8.90;;;8.40;72.80;;;;;;2068972;28;20081;-82
2021/03/03 01:11:42;;;;;;;14.63;8.35;;;8.30;72.90;;;;;;2069912;28;20030;-82
2021/03/03 01:12:45;;;;;;;14.93;8.90;;;8.30;72.90;;;;;;2067257;28;20487;-81
2021/03/03 01:13:46;;;;;;;14.25;8.35;;;8.30;72.90;;;;;;2074884;28;20481;-82
2021/03/03 01:14:47;;;;;;;14.02;8.77;;;8.30;73.00;;;;;;2065828;28;20050;-82
2021/03/03 01:15:49;;;;;;;13.65;8.60;;;8.30;73.10;;;;;;2065006;28;20106;-82
2021/03/03 01:16:52;;;;;;;14.02;8.57;;;8.30;73.10;;;;;;2080717;28;20465;-82
2021/03/03 01:18:00;;;;;;;16.40;8.95;;;8.20;73.10;;;;;;2073378;28;20053;-82
2021/03/03 01:19:01;;;;;;;14.25;8.38;;;8.20;73.20;;;;;;2063642;28;20088;-82
2021/03/03 01:20:04;;;;;;;12.13;7.85;;;8.20;73.80;;;;;;2055594;28;20039;-82
2021/03/03 01:21:05;;;;;;;13.98;8.27;;;8.20;73.20;;;;;;2057083;28;20062;-82
2021/03/03 01:22:07;;;;;;;12.32;7.88;;;8.20;73.20;;;;;;2060669;28;20062;-82
2021/03/03 01:23:08;;;;;;;13.73;8.52;;;8.20;73.30;;;;;;2072422;28;20120;-82
2021/03/03 01:24:10;;;;;;;14.13;8.52;;;8.10;73.30;;;;;;2066113;28;20060;-82
2021/03/03 01:25:13;;;;;;;14.75;8.48;;;8.10;73.30;;;;;;2052686;28;20078;-82
2021/03/03 01:26:14;;;;;;;13.63;8.50;;;8.20;73.40;;;;;;2057119;28;20027;-81
2021/03/03 01:27:16;;;;;;;14.25;8.38;;;8.10;73.40;;;;;;2064260;28;20034;-82
2021/03/03 01:28:18;;;;;;;15.02;8.90;;;8.10;73.40;;;;;;2065316;28;20027;-82
2021/03/03 01:31:52;;;;;;;13.45;7.72;;;8.10;73.50;;;;;;2079604;28;20065;-82
2021/03/03 01:33:20;;;;;;;15.32;8.27;;;8.10;73.50;;;;;;2059045;28;20055;-82
2021/03/03 01:34:28;;;;;;;13.18;7.40;;;8.00;73.50;;;;;;2067729;28;20010;-83
2021/03/03 01:35:54;;;;;;;12.90;7.68;;;8.00;73.50;;;;;;2064322;28;20493;-82
2021/03/03 01:37:23;;;;;;;12.15;7.55;;;8.00;73.60;;;;;;2059675;28;20034;-82
2021/03/03 01:38:50;;;;;;;12.98;7.90;;;8.00;73.60;;;;;;2071044;28;20050;-82
2021/03/03 01:40:12;;;;;;;12.50;7.03;;;8.00;73.60;;;;;;2076248;28;20040;-82
2021/03/03 01:43:04;;;;;;;13.23;7.82;;;8.00;74.40;;;;;;2060246;28;20536;-82
2021/03/03 01:44:09;;;;;;;13.07;7.97;;;7.90;73.80;;;;;;2067072;28;20042;-82
2021/03/03 01:45:27;;;;;;;13.70;7.43;;;7.90;73.90;;;;;;2071244;28;20116;-81
2021/03/03 01:46:29;;;;;;;13.40;8.38;;;7.80;73.90;;;;;;2054257;28;20035;-82
2021/03/03 01:47:34;;;;;;;12.60;7.65;;;7.80;74.00;;;;;;2047933;28;20089;-82
2021/03/03 01:48:41;;;;;;;12.80;7.78;;;7.80;74.00;;;;;;2048675;28;20027;-82
2021/03/03 01:50:16;;;;;;;13.75;8.20;;;7.80;74.10;;;;;;2030653;29;20080;-81
2021/03/03 01:51:24;;;;;;;13.65;7.65;;;7.80;74.20;;;;;;2040378;29;20067;-81
2021/03/03 01:52:42;;;;;;;14.63;8.23;;;7.70;74.20;;;;;;2049414;28;20054;-81
2021/03/03 01:54:35;;;;;;;12.52;7.82;;;7.70;74.30;;;;;;2059718;28;20037;-83
2021/03/03 01:55:33;;;;;;;12.15;7.43;;;7.70;74.30;;;;;;2053617;28;20035;-82
2021/03/03 01:56:41;;;;;;;13.38;7.38;;;7.70;74.40;;;;;;2041426;29;20146;-81
2021/03/03 01:57:44;;;;;;;13.90;8.00;;;7.70;74.40;;;;;;2030250;29;20043;-82
2021/03/03 01:58:46;;;;;;;13.55;8.45;;;7.70;74.40;;;;;;2034840;29;20056;-82
2021/03/03 02:00:01;;;;;;;14.68;8.38;;;7.70;74.50;;;;;;2037171;29;20067;-82
2021/03/03 02:01:05;;;;;;;14.18;8.27;;;7.60;74.50;;;;;;2035216;29;20059;-82
2021/03/03 02:02:15;;;;;;;13.25;7.93;;;7.60;74.60;;;;;;2034302;29;20119;-82
2021/03/03 02:03:17;;;;;;;12.15;7.40;;;7.60;74.70;;;;;;2041357;29;20035;-81
2021/03/03 02:04:25;;;;;;;15.75;8.35;;;7.60;74.80;;;;;;2049770;28;20162;-82
2021/03/03 02:05:31;;;;;;;15.20;8.57;;;7.60;74.80;;;;;;2040378;29;20434;-82
2021/03/03 02:06:51;;;;;;;14.15;8.05;;;7.50;74.90;;;;;;2031421;29;20028;-82
2021/03/03 02:08:19;;;;;;;13.52;8.23;;;7.50;75.00;;;;;;2046350;29;20063;-82
2021/03/03 02:09:40;;;;;;;12.82;7.65;;;7.50;75.00;;;;;;2047992;28;20102;-82
2021/03/03 02:11:03;;;;;;;14.23;8.00;;;7.50;75.10;;;;;;2050446;28;20029;-81
2021/03/03 02:12:42;;;;;;;12.93;8.07;;;7.40;75.00;;;;;;2048225;28;20450;-82
2021/03/03 02:14:06;;;;;;;12.73;7.93;;;7.40;75.00;;;;;;2052102;28;20037;-81
2021/03/03 02:15:09;;;;;;;12.75;7.60;;;7.40;75.10;;;;;;2048164;29;20113;-82
2021/03/03 02:16:13;;;;;;;13.70;8.23;;;7.40;75.20;;;;;;2048865;28;20031;-82
2021/03/03 02:17:15;;;;;;;14.02;8.02;;;7.30;75.20;;;;;;2046228;28;20051;-83
2021/03/03 02:18:24;;;;;;;15.85;7.88;;;7.40;75.30;;;;;;2040482;29;20051;-82
2021/03/03 02:19:34;;;;;;;14.90;7.75;;;7.30;75.30;;;;;;2040952;29;20040;-82
2021/03/03 02:21:19;;;;;;;13.25;7.72;;;7.30;75.40;;;;;;2046485;29;20289;-82
2021/03/03 02:23:19;;;;;;;13.00;7.93;;;7.30;75.40;;;;;;2041201;29;20066;-81
2021/03/03 02:24:28;;;;;;;12.15;7.43;;;7.30;75.50;;;;;;2020897;29;20106;-82
2021/03/03 02:25:37;;;;;;;13.98;7.82;;;7.30;75.50;;;;;;2047389;28;20047;-82
2021/03/03 02:26:40;;;;;;;12.25;7.35;;;7.30;75.50;;;;;;2035749;29;20135;-82
2021/03/03 02:27:42;;;;;;;13.60;7.45;;;7.30;75.50;;;;;;2031802;29;20079;-82
2021/03/03 02:28:45;;;;;;;13.93;8.07;;;7.30;75.60;;;;;;2034873;29;20024;-82
2021/03/03 02:29:49;;;;;;;11.40;7.15;;;7.30;75.70;;;;;;2056885;28;20035;-82
2021/03/03 02:30:51;;;;;;;12.15;7.45;;;7.30;75.80;;;;;;2070913;28;20038;-82
2021/03/03 02:31:54;;;;;;;14.25;8.20;;;7.30;75.80;;;;;;2074336;28;20044;-82
2021/03/03 02:32:57;;;;;;;14.00;8.02;;;7.30;75.90;;;;;;2079668;28;20104;-82
2021/03/03 02:34:01;;;;;;;13.35;8.05;;;7.30;75.90;;;;;;2072725;28;20026;-82
2021/03/03 02:35:09;;;;;;;13.38;7.82;;;7.30;75.90;;;;;;2072511;28;20014;-82
2021/03/03 02:36:15;;;;;;;13.57;7.88;;;7.30;75.90;;;;;;2056040;28;20035;-82
2021/03/03 02:37:25;;;;;;;12.82;7.50;;;7.30;76.00;;;;;;2060055;28;20493;-82
2021/03/03 02:38:27;;;;;;;14.80;8.38;;;7.20;76.00;;;;;;2081095;28;20032;-82
2021/03/03 02:39:30;;;;;;;15.80;8.05;;;7.20;76.10;;;;;;2065290;28;20061;-81
2021/03/03 02:40:33;;;;;;;14.02;8.40;;;7.30;76.20;;;;;;2060371;28;20026;-82
2021/03/03 02:41:36;;;;;;;13.63;8.32;;;7.20;76.20;;;;;;2072710;28;20022;-82
2021/03/03 02:42:42;;;;;;;12.63;7.97;;;7.20;76.20;;;;;;2076671;28;20026;-81
2021/03/03 02:43:52;;;;;;;15.13;8.82;;;7.20;76.30;;;;;;2064285;28;20118;-81
2021/03/03 02:44:56;;;;;;;11.82;8.00;;;7.20;76.30;;;;;;2066083;28;20042;-82
2021/03/03 02:45:59;;;;;;;12.98;7.97;;;7.20;76.30;;;;;;2065028;28;20018;-82
2021/03/03 02:47:07;;;;;;;14.10;8.52;;;7.20;76.40;;;;;;2064339;28;20046;-82
2021/03/03 02:48:10;;;;;;;16.85;8.10;;;7.20;76.40;;;;;;2058015;28;20035;-82
2021/03/03 02:49:13;;;;;;;14.82;8.05;;;7.20;76.40;;;;;;2065282;28;20022;-82
2021/03/03 02:50:17;;;;;;;13.65;8.02;;;7.20;76.40;;;;;;2072411;28;20029;-82
2021/03/03 02:51:22;;;;;;;13.32;7.82;;;7.20;76.50;;;;;;2065035;28;20054;-82
2021/03/03 02:52:27;;;;;;;14.10;8.25;;;7.20;76.60;;;;;;2071334;28;20073;-82
2021/03/03 02:53:28;;;;;;;13.15;8.18;;;7.10;76.60;;;;;;2067605;28;20038;-82
2021/03/03 02:54:30;;;;;;;14.35;8.48;;;7.10;77.20;;;;;;2056641;28;20051;-82
2021/03/03 02:55:32;;;;;;;14.27;8.10;;;7.10;76.60;;;;;;2054798;28;20124;-82
2021/03/03 02:56:35;;;;;;;14.25;8.23;;;7.10;76.70;;;;;;2056760;28;20113;-82
2021/03/03 02:57:37;;;;;;;14.27;8.20;;;7.10;76.80;;;;;;2064599;28;20054;-82
2021/03/03 02:58:48;;;;;;;14.90;9.05;;;7.10;76.80;;;;;;2065534;28;20516;-82
2021/03/03 02:59:57;;;;;;;13.40;7.85;;;7.10;76.80;;;;;;2067993;28;20120;-82
2021/03/03 03:01:02;;;;;;;15.25;8.75;;;7.00;76.80;;;;;;2067488;28;21673;-82
2021/03/03 03:02:06;;;;;;;14.27;8.15;;;7.00;76.80;;;;;;2064909;28;20121;-82
2021/03/03 03:03:34;;;;;;;13.82;7.90;;;7.00;76.80;;;;;;2072624;28;20068;-82
2021/03/03 03:04:39;;;;;;;15.45;8.60;;;7.00;77.00;;;;;;2068785;28;20061;-82
2021/03/03 03:05:46;;;;;;;14.57;8.20;;;6.90;76.90;;;;;;2070518;28;20045;-81
2021/03/03 03:06:49;;;;;;;12.35;8.30;;;6.90;77.00;;;;;;2065405;28;20084;-82
2021/03/03 03:07:57;;;;;;;15.23;8.40;;;6.90;77.10;;;;;;2068019;28;20443;-82
2021/03/03 03:09:04;;;;;;;13.93;8.13;;;6.90;77.20;;;;;;2078229;28;20041;-82
2021/03/03 03:10:10;;;;;;;13.80;8.57;;;6.90;77.20;;;;;;2072242;28;20021;-82
2021/03/03 03:11:18;;;;;;;14.38;8.45;;;6.90;77.20;;;;;;2064257;28;20053;-81
2021/03/03 03:12:25;;;;;;;13.85;8.38;;;6.90;77.20;;;;;;2066517;28;20034;-82
2021/03/03 03:13:32;;;;;;;13.35;8.23;;;6.90;77.30;;;;;;2080092;28;20021;-81
2021/03/03 03:14:35;;;;;;;13.75;8.13;;;6.80;77.20;;;;;;2080317;28;20094;-82
2021/03/03 03:15:38;;;;;;;14.20;8.73;;;6.80;77.30;;;;;;2071525;28;20026;-82
2021/03/03 03:16:42;;;;;;;14.43;8.32;;;6.80;77.40;;;;;;2064445;28;20034;-81
2021/03/03 03:17:47;;;;;;;13.60;8.23;;;6.80;77.40;;;;;;2064702;28;20113;-82
2021/03/03 03:18:55;;;;;;;14.07;7.68;;;6.80;77.60;;;;;;2070659;28;20018;-82
2021/03/03 03:19:59;;;;;;;13.82;8.27;;;6.80;77.60;;;;;;2078393;28;20025;-82
2021/03/03 03:21:02;;;;;;;14.32;8.68;;;6.80;77.60;;;;;;2070641;28;20096;-82
2021/03/03 03:22:12;;;;;;;13.77;7.63;;;6.80;77.60;;;;;;2070968;28;20099;-82
2021/03/03 03:23:15;;;;;;;13.82;8.25;;;6.80;77.70;;;;;;2077038;28;20036;-82
2021/03/03 03:24:21;;;;;;;14.95;8.48;;;6.80;77.70;;;;;;2075521;28;20270;-84
2021/03/03 03:25:24;;;;;;;15.18;8.50;;;6.80;77.70;;;;;;2070551;28;20038;-82
2021/03/03 03:26:27;;;;;;;13.25;8.32;;;6.80;77.70;;;;;;2072911;28;20115;-82
2021/03/03 03:27:30;;;;;;;13.90;8.10;;;6.70;77.70;;;;;;2061962;28;20030;-82
2021/03/03 03:28:37;;;;;;;14.18;8.88;;;6.80;77.80;;;;;;2061318;28;20029;-82
2021/03/03 03:29:40;;;;;;;13.50;8.07;;;6.80;77.90;;;;;;2069890;28;20033;-82
2021/03/03 03:30:45;;;;;;;13.45;8.18;;;6.80;77.90;;;;;;2072361;28;20038;-81
2021/03/03 03:31:47;;;;;;;12.95;7.45;;;6.70;77.80;;;;;;2063733;28;20066;-82
2021/03/03 03:32:48;;;;;;;13.27;7.95;;;6.80;77.90;;;;;;2055902;28;20054;-82
2021/03/03 03:33:51;;;;;;;13.50;8.13;;;6.80;77.90;;;;;;2054410;28;20038;-82
2021/03/03 03:34:55;;;;;;;13.90;8.07;;;6.80;77.90;;;;;;2058450;28;20061;-82
2021/03/03 03:35:58;;;;;;;13.18;7.93;;;6.70;77.90;;;;;;2065618;28;20036;-81
2021/03/03 03:37:00;;;;;;;15.55;8.30;;;6.70;78.00;;;;;;2071797;28;20022;-82
2021/03/03 03:38:01;;;;;;;13.35;8.05;;;6.70;78.00;;;;;;2079030;28;20025;-82
2021/03/03 03:39:13;;;;;;;14.80;9.07;;;6.70;78.00;;;;;;2063746;28;20512;-82
2021/03/03 03:40:15;;;;;;;14.55;8.50;;;6.70;78.10;;;;;;2065495;28;20029;-82
2021/03/03 03:41:18;;;;;;;14.43;8.57;;;6.70;78.00;;;;;;2063667;28;20045;-82
2021/03/03 03:42:20;;;;;;;14.98;8.65;;;6.80;78.10;;;;;;2064174;28;20041;-81
2021/03/03 03:43:23;;;;;;;14.45;8.63;;;6.70;78.10;;;;;;2056409;28;20085;-82
2021/03/03 03:44:25;;;;;;;13.60;8.23;;;6.70;78.10;;;;;;2056254;28;20129;-82
2021/03/03 03:45:30;;;;;;;14.75;8.70;;;6.70;78.20;;;;;;2072097;28;20049;-82
2021/03/03 03:46:32;;;;;;;13.70;8.20;;;6.70;78.20;;;;;;2070242;28;20056;-82
2021/03/03 03:47:36;;;;;;;13.23;8.25;;;6.70;78.30;;;;;;2062290;28;20062;-82
2021/03/03 03:48:38;;;;;;;14.65;8.23;;;6.70;78.40;;;;;;2071239;28;20049;-82
2021/03/03 03:49:39;;;;;;;13.20;8.23;;;6.70;78.40;;;;;;2069397;28;20062;-82
2021/03/03 03:50:41;;;;;;;15.02;8.93;;;6.70;78.40;;;;;;2049173;28;20031;-82
2021/03/03 03:51:42;;;;;;;15.00;8.55;;;6.70;78.40;;;;;;2064318;28;20179;-82
2021/03/03 03:52:44;;;;;;;14.43;8.13;;;6.70;78.50;;;;;;2073867;28;20145;-82
2021/03/03 03:53:45;;;;;;;14.30;8.48;;;6.70;78.50;;;;;;2067210;28;20027;-82
2021/03/03 03:54:53;;;;;;;14.02;8.38;;;6.70;78.50;;;;;;2065195;28;20022;-83
2021/03/03 03:55:54;;;;;;;15.45;8.65;;;6.70;78.50;;;;;;2062760;28;20026;-83
2021/03/03 03:56:56;;;;;;;14.13;8.23;;;6.70;78.50;;;;;;2067553;28;20041;-81
2021/03/03 03:57:57;;;;;;;13.00;8.13;;;6.70;78.50;;;;;;2066387;28;20025;-82
2021/03/03 03:58:59;;;;;;;12.90;8.25;;;6.60;78.40;;;;;;2063278;28;20096;-82
2021/03/03 04:00:00;;;;;;;14.18;8.40;;;6.70;78.50;;;;;;2064082;28;20022;-82
2021/03/03 04:01:05;;;;;;;15.10;8.55;;;6.70;78.50;;;;;;2060721;28;20034;-82
2021/03/03 04:02:09;;;;;;;14.40;8.68;;;6.70;78.60;;;;;;2059326;28;20031;-82
2021/03/03 04:03:10;;;;;;;12.60;8.07;;;6.70;78.70;;;;;;2054735;28;20037;-82
2021/03/03 04:04:11;;;;;;;14.52;8.52;;;6.60;78.60;;;;;;2056213;28;20034;-82
2021/03/03 04:05:13;;;;;;;14.25;8.43;;;6.60;78.70;;;;;;2067817;28;20107;-82
2021/03/03 04:06:14;;;;;;;14.40;8.27;;;6.60;78.70;;;;;;2069124;28;20076;-82
2021/03/03 04:07:16;;;;;;;13.65;8.32;;;6.60;78.70;;;;;;2079278;28;20025;-82
2021/03/03 04:08:19;;;;;;;14.73;9.02;;;6.60;78.70;;;;;;2080183;28;20511;-83
2021/03/03 04:09:20;;;;;;;13.02;8.20;;;6.60;78.70;;;;;;2068623;28;20030;-82
2021/03/03 04:10:27;;;;;;;14.23;9.27;;;6.60;78.80;;;;;;2057043;28;20031;-82
2021/03/03 04:11:28;;;;;;;14.55;8.55;;;6.60;78.90;;;;;;2067276;28;20121;-82
2021/03/03 04:12:30;;;;;;;15.40;8.80;;;6.60;78.90;;;;;;2072033;28;20022;-82
2021/03/03 04:13:34;;;;;;;13.90;8.85;;;6.60;79.00;;;;;;2065203;28;20027;-81
2021/03/03 04:14:37;;;;;;;14.02;8.43;;;6.50;78.90;;;;;;2061205;28;20029;-82
2021/03/03 04:15:41;;;;;;;13.68;8.43;;;6.50;79.00;;;;;;2054940;28;20059;-81
2021/03/03 04:16:42;;;;;;;15.15;8.77;;;6.50;79.00;;;;;;2063904;28;20056;-82
2021/03/03 04:17:44;;;;;;;15.05;8.48;;;6.50;79.10;;;;;;2063920;28;20033;-82
2021/03/03 04:18:46;;;;;;;14.75;8.43;;;6.50;79.20;;;;;;2063291;28;20025;-82
2021/03/03 04:19:48;;;;;;;14.20;8.27;;;6.50;79.20;;;;;;2070650;28;20064;-82
2021/03/03 04:20:52;;;;;;;16.20;9.05;;;6.50;79.20;;;;;;2073296;28;20022;-82
2021/03/03 04:21:53;;;;;;;15.77;7.97;;;6.50;79.10;;;;;;2071479;28;20026;-82
2021/03/03 04:22:54;;;;;;;13.25;8.23;;;6.50;79.10;;;;;;2070726;28;20030;-82
2021/03/03 04:23:56;;;;;;;15.30;8.82;;;6.50;79.10;;;;;;2066402;28;20029;-82
2021/03/03 04:24:57;;;;;;;14.23;8.73;;;6.50;79.20;;;;;;2056211;28;20166;-82
2021/03/03 04:25:59;;;;;;;13.88;8.60;;;6.50;79.20;;;;;;2059779;28;20454;-82
2021/03/03 04:27:01;;;;;;;15.00;8.25;;;6.50;79.20;;;;;;2070960;28;20053;-82
2021/03/03 04:28:04;;;;;;;13.15;8.45;;;6.50;79.20;;;;;;2066335;28;20035;-81
2021/03/03 04:29:05;;;;;;;14.45;8.68;;;6.50;79.20;;;;;;2057245;28;20034;-82
2021/03/03 04:30:12;;;;;;;14.27;8.63;;;6.50;79.20;;;;;;2073386;28;20034;-82
2021/03/03 04:31:14;;;;;;;12.93;8.13;;;6.50;79.20;;;;;;2072158;28;20058;-82
2021/03/03 04:32:15;;;;;;;14.90;8.27;;;6.50;79.20;;;;;;2070576;28;20034;-82
2021/03/03 04:33:16;;;;;;;15.30;8.35;;;6.50;79.30;;;;;;2064551;28;20033;-81
2021/03/03 04:34:17;;;;;;;14.70;9.02;;;6.50;79.30;;;;;;2056894;28;20031;-82
2021/03/03 04:35:19;;;;;;;14.25;8.90;;;6.40;79.30;;;;;;2056697;28;20052;-82
2021/03/03 04:36:20;;;;;;;13.35;8.52;;;6.40;79.30;;;;;;2070721;28;20033;-82
2021/03/03 04:37:21;;;;;;;16.13;8.27;;;6.40;79.30;;;;;;2065709;28;20033;-82
2021/03/03 04:38:23;;;;;;;14.88;8.77;;;6.40;79.30;;;;;;2055271;28;20069;-82
2021/03/03 04:39:25;;;;;;;14.75;8.85;;;6.40;79.40;;;;;;2056780;28;20113;-82
2021/03/03 04:40:27;;;;;;;15.55;9.00;;;6.40;79.40;;;;;;2059837;28;20026;-82
2021/03/03 04:41:28;;;;;;;15.40;8.50;;;6.40;79.50;;;;;;2055844;28;20027;-82
2021/03/03 04:42:30;;;;;;;14.00;8.65;;;6.40;79.60;;;;;;2061387;28;20117;-82
2021/03/03 04:43:31;;;;;;;13.60;8.88;;;6.40;79.60;;;;;;2070185;28;20030;-81
2021/03/03 04:44:33;;;;;;;14.32;9.02;;;6.30;79.50;;;;;;2056920;28;20097;-80
2021/03/03 04:45:34;;;;;;;13.65;8.15;;;6.30;79.50;;;;;;2060182;28;20023;-81
2021/03/03 04:46:35;;;;;;;14.90;8.60;;;6.30;79.60;;;;;;2060301;28;20082;-81
2021/03/03 04:47:37;;;;;;;14.98;8.40;;;6.30;79.60;;;;;;2059676;28;20037;-80
2021/03/03 04:48:39;;;;;;;14.25;8.30;;;6.30;79.60;;;;;;2079776;28;20109;-81
2021/03/03 04:49:40;;;;;;;13.98;8.80;;;6.30;79.70;;;;;;2071855;28;20026;-82
2021/03/03 04:50:41;;;;;;;15.05;8.88;;;6.30;79.60;;;;;;2064258;28;20026;-81
2021/03/03 04:51:42;;;;;;;15.57;8.60;;;6.30;79.70;;;;;;2066434;28;20071;-82
2021/03/03 04:52:43;;;;;;;12.77;8.23;;;6.30;79.70;;;;;;2072066;28;20360;-82
2021/03/03 04:53:45;;;;;;;13.02;8.57;;;6.30;79.70;;;;;;2059656;28;20113;-81
2021/03/03 04:54:46;;;;;;;14.15;8.13;;;6.20;79.80;;;;;;2065399;28;20028;-81
2021/03/03 04:55:47;;;;;;;13.80;8.98;;;6.30;79.80;;;;;;2060817;28;20046;-82
2021/03/03 04:56:48;;;;;;;14.07;8.55;;;6.20;79.80;;;;;;2062373;28;20492;-82
2021/03/03 04:57:49;;;;;;;13.85;8.63;;;6.20;79.90;;;;;;2063505;28;20093;-81
2021/03/03 04:58:50;;;;;;;14.60;8.48;;;6.20;79.90;;;;;;2048123;28;20023;-81
2021/03/03 04:59:52;;;;;;;15.32;8.55;;;6.20;79.90;;;;;;2047735;28;20023;-81
2021/03/03 05:00:53;;;;;;;15.05;8.90;;;6.20;80.00;;;;;;2055325;28;20026;-81
2021/03/03 05:01:54;;;;;;;14.60;9.05;;;6.20;80.00;;;;;;2063601;28;20034;-82
2021/03/03 05:02:55;;;;;;;13.38;8.48;;;6.20;80.00;;;;;;2062220;28;20125;-81
2021/03/03 05:03:56;;;;;;;14.20;8.52;;;6.20;80.10;;;;;;2057769;28;20370;-81
2021/03/03 05:04:58;;;;;;;13.50;8.30;;;6.20;80.10;;;;;;2055902;28;20051;-82
2021/03/03 05:05:59;;;;;;;16.73;9.20;;;6.20;80.10;;;;;;2057688;28;20019;-82
2021/03/03 05:07:00;;;;;;;15.02;8.88;;;6.20;80.20;;;;;;2063343;28;20034;-81
2021/03/03 05:08:01;;;;;;;14.20;8.77;;;6.20;80.20;;;;;;2057564;28;20632;-81
2021/03/03 05:09:02;;;;;;;13.80;8.45;;;6.20;80.20;;;;;;2068940;28;20537;-81
2021/03/03 05:10:04;;;;;;;13.63;7.93;;;6.10;80.30;;;;;;2063640;28;20089;-81
2021/03/03 05:11:06;;;;;;;14.50;8.90;;;6.20;80.30;;;;;;2053744;28;20652;-81
2021/03/03 05:12:08;;;;;;;13.35;8.55;;;6.20;80.30;;;;;;2063702;28;20022;-81
2021/03/03 05:13:16;;;;;;;14.10;8.27;;;6.10;80.20;;;;;;2056321;28;20515;-81
2021/03/03 05:14:17;;;;;;;14.00;8.40;;;6.10;80.30;;;;;;2072730;28;20499;-81
2021/03/03 05:15:19;;;;;;;15.73;9.23;;;6.10;80.20;;;;;;2063536;28;20105;-81
2021/03/03 05:16:20;;;;;;;15.90;9.20;;;6.10;80.30;;;;;;2065012;28;20508;-81
2021/03/03 05:17:21;;;;;;;13.82;8.43;;;6.10;80.30;;;;;;2063582;28;20116;-82
2021/03/03 05:18:22;;;;;;;15.40;8.55;;;6.10;80.30;;;;;;2055771;28;20069;-82
2021/03/03 05:19:23;;;;;;;15.52;8.93;;;6.20;80.40;;;;;;2049493;28;20074;-82
2021/03/03 05:20:25;;;;;;;14.18;8.68;;;6.10;80.30;;;;;;2066500;28;20776;-81
2021/03/03 05:21:26;;;;;;;14.20;8.57;;;6.10;80.30;;;;;;2057171;28;20033;-81
2021/03/03 05:22:27;;;;;;;14.13;8.70;;;6.10;80.30;;;;;;2066457;28;20023;-81
2021/03/03 05:23:33;;;;;;;14.15;8.63;;;6.10;80.40;;;;;;2069422;28;20022;-81
2021/03/03 05:24:34;;;;;;;14.60;8.40;;;6.10;80.30;;;;;;2074465;28;20050;-81
2021/03/03 05:25:35;;;;;;;17.27;9.57;;;6.10;80.40;;;;;;2084021;28;20022;-81
2021/03/03 05:26:36;;;;;;;14.88;9.27;;;6.10;80.30;;;;;;2075547;28;20037;-81
2021/03/03 05:27:37;;;;;;;15.43;8.93;;;6.10;80.40;;;;;;2075280;28;20032;-81
2021/03/03 05:28:39;;;;;;;15.63;9.23;;;6.20;80.40;;;;;;2075369;28;20053;-81
2021/03/03 05:29:40;;;;;;;14.65;9.15;;;6.20;80.40;;;;;;2075435;28;20025;-81
2021/03/03 05:30:41;;;;;;;15.38;9.05;;;6.20;81.10;;;;;;2067596;28;20030;-81
2021/03/03 05:31:42;;;;;;;14.93;9.02;;;6.20;80.50;;;;;;2070971;28;20093;-81
2021/03/03 05:32:44;;;;;;;15.45;9.27;;;6.20;80.50;;;;;;2079340;28;20061;-81
2021/03/03 05:33:45;;;;;;;15.48;9.23;;;6.20;80.50;;;;;;2066576;28;20027;-81
2021/03/03 05:34:47;;;;;;;14.48;9.07;;;6.20;80.50;;;;;;2058023;28;20039;-81
2021/03/03 05:35:48;;;;;;;14.68;8.82;;;6.20;80.50;;;;;;2059051;28;20034;-81
2021/03/03 05:36:50;;;;;;;14.32;8.57;;;6.20;80.50;;;;;;2058839;28;20051;-81
2021/03/03 05:37:51;;;;;;;14.45;8.60;;;6.20;80.50;;;;;;2067082;28;20104;-81
2021/03/03 05:38:52;;;;;;;16.35;9.50;;;6.20;80.50;;;;;;2066369;28;20049;-82
2021/03/03 05:39:53;;;;;;;13.93;8.73;;;6.20;80.50;;;;;;2079362;28;20097;-83
2021/03/03 05:40:59;;;;;;;16.52;9.25;;;6.20;80.50;;;;;;2077073;28;20029;-81